sensor_id;sensor_type;location;lat;lon;timestamp;P1;durP1;ratioP1;P2;durP2;ratioP2
12441;SDS011;6285;48.804;9.220;2024-03-06T00:01:37;15.27;;;10.52;;
12441;SDS011;6285;48.804;9.220;2024-03-06T00:04:05;14.27;;;10.88;;
12441;SDS011;6285;48.804;9.220;2024-03-06T00:06:32;16.30;;;11.95;;
12441;SDS011;6285;48.804;9.220;2024-03-06T00:09:01;13.88;;;10.73;;
12441;SDS011;6285;48.804;9.220;2024-03-06T00:11:29;16.20;;;11.57;;
12441;SDS011;6285;48.804;9.220;2024-03-06T00:13:57;12.55;;;10.48;;
12441;SDS011;6285;48.804;9.220;2024-03-06T00:16:24;15.25;;;10.88;;
12441;SDS011;6285;48.804;9.220;2024-03-06T00:18:52;11.68;;;9.77;;
12441;SDS011;6285;48.804;9.220;2024-03-06T00:21:20;12.25;;;9.32;;
12441;SDS011;6285;48.804;9.220;2024-03-06T00:23:47;11.85;;;9.55;;
12441;SDS011;6285;48.804;9.220;2024-03-06T00:26:15;15.40;;;9.80;;
12441;SDS011;6285;48.804;9.220;2024-03-06T00:28:42;11.30;;;9.18;;
12441;SDS011;6285;48.804;9.220;2024-03-06T00:31:09;12.95;;;8.75;;
12441;SDS011;6285;48.804;9.220;2024-03-06T00:33:37;13.18;;;9.13;;
12441;SDS011;6285;48.804;9.220;2024-03-06T00:36:04;12.95;;;9.57;;
12441;SDS011;6285;48.804;9.220;2024-03-06T00:38:35;14.65;;;10.45;;
12441;SDS011;6285;48.804;9.220;2024-03-06T00:41:02;13.88;;;9.85;;
12441;SDS011;6285;48.804;9.220;2024-03-06T00:43:29;13.60;;;9.77;;
12441;SDS011;6285;48.804;9.220;2024-03-06T00:45:57;13.80;;;10.52;;
12441;SDS011;6285;48.804;9.220;2024-03-06T00:48:24;7.93;;;5.97;;
12441;SDS011;6285;48.804;9.220;2024-03-06T00:50:56;13.95;;;9.68;;
12441;SDS011;6285;48.804;9.220;2024-03-06T00:53:23;11.23;;;9.05;;
12441;SDS011;6285;48.804;9.220;2024-03-06T00:55:52;10.57;;;7.63;;
12441;SDS011;6285;48.804;9.220;2024-03-06T00:58:19;8.50;;;6.85;;
12441;SDS011;6285;48.804;9.220;2024-03-06T01:00:46;14.35;;;9.52;;
12441;SDS011;6285;48.804;9.220;2024-03-06T01:03:13;23.00;;;10.52;;
12441;SDS011;6285;48.804;9.220;2024-03-06T01:05:41;13.75;;;10.25;;
12441;SDS011;6285;48.804;9.220;2024-03-06T01:08:08;11.93;;;9.50;;
12441;SDS011;6285;48.804;9.220;2024-03-06T01:10:35;14.18;;;10.25;;
12441;SDS011;6285;48.804;9.220;2024-03-06T01:13:03;12.63;;;9.75;;
12441;SDS011;6285;48.804;9.220;2024-03-06T01:15:31;14.45;;;10.32;;
12441;SDS011;6285;48.804;9.220;2024-03-06T01:17:58;13.50;;;10.20;;
12441;SDS011;6285;48.804;9.220;2024-03-06T01:20:25;15.27;;;10.13;;
12441;SDS011;6285;48.804;9.220;2024-03-06T01:22:54;15.00;;;10.98;;
12441;SDS011;6285;48.804;9.220;2024-03-06T01:25:22;11.90;;;9.68;;
12441;SDS011;6285;48.804;9.220;2024-03-06T01:27:49;15.95;;;10.68;;
12441;SDS011;6285;48.804;9.220;2024-03-06T01:30:17;13.85;;;10.57;;
12441;SDS011;6285;48.804;9.220;2024-03-06T01:32:45;16.88;;;10.63;;
12441;SDS011;6285;48.804;9.220;2024-03-06T01:35:12;14.57;;;11.05;;
12441;SDS011;6285;48.804;9.220;2024-03-06T01:37:39;13.82;;;11.10;;
12441;SDS011;6285;48.804;9.220;2024-03-06T01:40:06;13.73;;;11.00;;
12441;SDS011;6285;48.804;9.220;2024-03-06T01:42:34;16.92;;;10.95;;
12441;SDS011;6285;48.804;9.220;2024-03-06T01:45:01;15.27;;;11.32;;
12441;SDS011;6285;48.804;9.220;2024-03-06T01:47:30;15.05;;;11.02;;
12441;SDS011;6285;48.804;9.220;2024-03-06T01:49:57;15.80;;;11.05;;
12441;SDS011;6285;48.804;9.220;2024-03-06T01:52:24;11.82;;;9.95;;
12441;SDS011;6285;48.804;9.220;2024-03-06T01:54:52;15.88;;;10.82;;
12441;SDS011;6285;48.804;9.220;2024-03-06T01:57:21;12.63;;;10.13;;
12441;SDS011;6285;48.804;9.220;2024-03-06T01:59:48;13.88;;;10.43;;
12441;SDS011;6285;48.804;9.220;2024-03-06T02:02:16;14.95;;;11.30;;
12441;SDS011;6285;48.804;9.220;2024-03-06T02:04:44;15.45;;;11.60;;
12441;SDS011;6285;48.804;9.220;2024-03-06T02:07:11;14.82;;;11.35;;
12441;SDS011;6285;48.804;9.220;2024-03-06T02:09:39;14.57;;;10.15;;
12441;SDS011;6285;48.804;9.220;2024-03-06T02:12:07;11.85;;;9.65;;
12441;SDS011;6285;48.804;9.220;2024-03-06T02:14:35;10.13;;;8.27;;
12441;SDS011;6285;48.804;9.220;2024-03-06T02:17:02;10.40;;;8.63;;
12441;SDS011;6285;48.804;9.220;2024-03-06T02:19:38;9.98;;;6.97;;
12441;SDS011;6285;48.804;9.220;2024-03-06T02:22:07;9.32;;;5.75;;
12441;SDS011;6285;48.804;9.220;2024-03-06T02:24:35;7.22;;;5.03;;
12441;SDS011;6285;48.804;9.220;2024-03-06T02:27:02;6.40;;;5.05;;
12441;SDS011;6285;48.804;9.220;2024-03-06T02:29:30;6.80;;;5.10;;
12441;SDS011;6285;48.804;9.220;2024-03-06T02:31:58;8.05;;;5.18;;
12441;SDS011;6285;48.804;9.220;2024-03-06T02:34:27;8.80;;;5.25;;
12441;SDS011;6285;48.804;9.220;2024-03-06T02:36:55;6.13;;;4.50;;
12441;SDS011;6285;48.804;9.220;2024-03-06T02:39:31;6.65;;;4.93;;
12441;SDS011;6285;48.804;9.220;2024-03-06T02:41:58;6.72;;;5.25;;
12441;SDS011;6285;48.804;9.220;2024-03-06T02:44:25;6.45;;;4.30;;
12441;SDS011;6285;48.804;9.220;2024-03-06T02:46:52;7.97;;;4.30;;
12441;SDS011;6285;48.804;9.220;2024-03-06T02:49:19;5.00;;;4.00;;
12441;SDS011;6285;48.804;9.220;2024-03-06T02:51:46;6.57;;;4.40;;
12441;SDS011;6285;48.804;9.220;2024-03-06T02:54:13;5.35;;;4.50;;
12441;SDS011;6285;48.804;9.220;2024-03-06T02:56:42;7.00;;;4.50;;
12441;SDS011;6285;48.804;9.220;2024-03-06T02:59:09;8.80;;;5.03;;
12441;SDS011;6285;48.804;9.220;2024-03-06T03:01:36;6.18;;;4.60;;
12441;SDS011;6285;48.804;9.220;2024-03-06T03:04:04;6.20;;;4.35;;
12441;SDS011;6285;48.804;9.220;2024-03-06T03:06:31;7.30;;;5.28;;
12441;SDS011;6285;48.804;9.220;2024-03-06T03:08:59;5.50;;;4.90;;
12441;SDS011;6285;48.804;9.220;2024-03-06T03:11:26;8.02;;;5.30;;
12441;SDS011;6285;48.804;9.220;2024-03-06T03:13:55;7.93;;;5.55;;
12441;SDS011;6285;48.804;9.220;2024-03-06T03:16:22;8.20;;;5.82;;
12441;SDS011;6285;48.804;9.220;2024-03-06T03:18:49;9.20;;;5.55;;
12441;SDS011;6285;48.804;9.220;2024-03-06T03:21:16;9.18;;;5.00;;
12441;SDS011;6285;48.804;9.220;2024-03-06T03:23:43;7.38;;;4.82;;
12441;SDS011;6285;48.804;9.220;2024-03-06T03:26:10;7.45;;;5.05;;
12441;SDS011;6285;48.804;9.220;2024-03-06T03:28:37;6.88;;;5.15;;
12441;SDS011;6285;48.804;9.220;2024-03-06T03:31:07;8.40;;;4.95;;
12441;SDS011;6285;48.804;9.220;2024-03-06T03:33:34;5.82;;;4.68;;
12441;SDS011;6285;48.804;9.220;2024-03-06T03:36:03;5.68;;;4.55;;
12441;SDS011;6285;48.804;9.220;2024-03-06T03:38:31;6.00;;;4.80;;
12441;SDS011;6285;48.804;9.220;2024-03-06T03:40:58;5.78;;;4.65;;
12441;SDS011;6285;48.804;9.220;2024-03-06T03:43:25;6.40;;;4.13;;
12441;SDS011;6285;48.804;9.220;2024-03-06T03:45:52;4.57;;;3.97;;
12441;SDS011;6285;48.804;9.220;2024-03-06T03:48:21;5.78;;;3.92;;
12441;SDS011;6285;48.804;9.220;2024-03-06T03:50:48;5.93;;;4.25;;
12441;SDS011;6285;48.804;9.220;2024-03-06T03:53:15;5.45;;;3.72;;
12441;SDS011;6285;48.804;9.220;2024-03-06T03:55:42;6.78;;;3.95;;
12441;SDS011;6285;48.804;9.220;2024-03-06T03:58:09;5.57;;;3.97;;
12441;SDS011;6285;48.804;9.220;2024-03-06T04:00:36;6.07;;;3.60;;
12441;SDS011;6285;48.804;9.220;2024-03-06T04:03:04;4.60;;;3.90;;
12441;SDS011;6285;48.804;9.220;2024-03-06T04:05:33;6.63;;;3.67;;
12441;SDS011;6285;48.804;9.220;2024-03-06T04:08:00;5.93;;;3.47;;
12441;SDS011;6285;48.804;9.220;2024-03-06T04:10:27;4.45;;;3.53;;
12441;SDS011;6285;48.804;9.220;2024-03-06T04:12:54;4.47;;;3.42;;
12441;SDS011;6285;48.804;9.220;2024-03-06T04:15:23;5.35;;;3.70;;
12441;SDS011;6285;48.804;9.220;2024-03-06T04:17:50;5.13;;;3.50;;
12441;SDS011;6285;48.804;9.220;2024-03-06T04:20:18;4.13;;;3.60;;
12441;SDS011;6285;48.804;9.220;2024-03-06T04:22:47;4.20;;;3.63;;
12441;SDS011;6285;48.804;9.220;2024-03-06T04:25:16;5.20;;;3.75;;
12441;SDS011;6285;48.804;9.220;2024-03-06T04:27:43;5.85;;;3.80;;
12441;SDS011;6285;48.804;9.220;2024-03-06T04:30:10;4.88;;;3.58;;
12441;SDS011;6285;48.804;9.220;2024-03-06T04:32:38;5.43;;;3.70;;
12441;SDS011;6285;48.804;9.220;2024-03-06T04:35:05;4.38;;;3.42;;
12441;SDS011;6285;48.804;9.220;2024-03-06T04:37:34;4.85;;;3.50;;
12441;SDS011;6285;48.804;9.220;2024-03-06T04:40:03;5.22;;;3.60;;
12441;SDS011;6285;48.804;9.220;2024-03-06T04:42:33;5.70;;;3.90;;
12441;SDS011;6285;48.804;9.220;2024-03-06T04:45:01;7.13;;;3.90;;
12441;SDS011;6285;48.804;9.220;2024-03-06T04:47:29;6.20;;;3.88;;
12441;SDS011;6285;48.804;9.220;2024-03-06T04:49:56;5.45;;;3.88;;
12441;SDS011;6285;48.804;9.220;2024-03-06T04:52:24;5.72;;;3.90;;
12441;SDS011;6285;48.804;9.220;2024-03-06T04:54:51;5.03;;;4.25;;
12441;SDS011;6285;48.804;9.220;2024-03-06T04:57:19;5.25;;;4.22;;
12441;SDS011;6285;48.804;9.220;2024-03-06T04:59:46;4.82;;;4.22;;
12441;SDS011;6285;48.804;9.220;2024-03-06T05:02:13;6.45;;;4.03;;
12441;SDS011;6285;48.804;9.220;2024-03-06T05:04:40;5.43;;;4.07;;
12441;SDS011;6285;48.804;9.220;2024-03-06T05:07:07;5.47;;;4.53;;
12441;SDS011;6285;48.804;9.220;2024-03-06T05:09:35;6.78;;;3.95;;
12441;SDS011;6285;48.804;9.220;2024-03-06T05:12:02;6.32;;;4.60;;
12441;SDS011;6285;48.804;9.220;2024-03-06T05:14:31;6.88;;;4.28;;
12441;SDS011;6285;48.804;9.220;2024-03-06T05:16:58;5.60;;;4.75;;
12441;SDS011;6285;48.804;9.220;2024-03-06T05:19:25;6.10;;;4.57;;
12441;SDS011;6285;48.804;9.220;2024-03-06T05:21:57;5.82;;;4.53;;
12441;SDS011;6285;48.804;9.220;2024-03-06T05:24:24;5.18;;;4.18;;
12441;SDS011;6285;48.804;9.220;2024-03-06T05:26:51;5.38;;;4.53;;
12441;SDS011;6285;48.804;9.220;2024-03-06T05:29:18;7.65;;;4.68;;
12441;SDS011;6285;48.804;9.220;2024-03-06T05:31:47;8.57;;;5.05;;
12441;SDS011;6285;48.804;9.220;2024-03-06T05:34:14;6.07;;;4.72;;
12441;SDS011;6285;48.804;9.220;2024-03-06T05:36:41;6.70;;;5.13;;
12441;SDS011;6285;48.804;9.220;2024-03-06T05:39:08;6.45;;;4.97;;
12441;SDS011;6285;48.804;9.220;2024-03-06T05:41:37;5.88;;;5.18;;
12441;SDS011;6285;48.804;9.220;2024-03-06T05:44:05;7.65;;;5.75;;
12441;SDS011;6285;48.804;9.220;2024-03-06T05:46:32;6.13;;;5.57;;
12441;SDS011;6285;48.804;9.220;2024-03-06T05:49:00;7.45;;;5.55;;
12441;SDS011;6285;48.804;9.220;2024-03-06T05:51:28;6.95;;;5.30;;
12441;SDS011;6285;48.804;9.220;2024-03-06T05:53:55;7.68;;;5.35;;
12441;SDS011;6285;48.804;9.220;2024-03-06T05:56:22;9.27;;;5.40;;
12441;SDS011;6285;48.804;9.220;2024-03-06T05:58:49;8.70;;;5.47;;
12441;SDS011;6285;48.804;9.220;2024-03-06T06:01:16;6.68;;;5.60;;
12441;SDS011;6285;48.804;9.220;2024-03-06T06:03:45;9.63;;;5.43;;
12441;SDS011;6285;48.804;9.220;2024-03-06T06:06:15;9.05;;;5.80;;
12441;SDS011;6285;48.804;9.220;2024-03-06T06:08:44;6.63;;;5.50;;
12441;SDS011;6285;48.804;9.220;2024-03-06T06:11:11;9.55;;;6.00;;
12441;SDS011;6285;48.804;9.220;2024-03-06T06:13:39;6.28;;;5.63;;
12441;SDS011;6285;48.804;9.220;2024-03-06T06:16:06;7.32;;;5.45;;
12441;SDS011;6285;48.804;9.220;2024-03-06T06:18:33;6.88;;;5.38;;
12441;SDS011;6285;48.804;9.220;2024-03-06T06:21:00;6.28;;;5.60;;
12441;SDS011;6285;48.804;9.220;2024-03-06T06:23:33;6.35;;;5.40;;
12441;SDS011;6285;48.804;9.220;2024-03-06T06:26:00;11.40;;;6.20;;
12441;SDS011;6285;48.804;9.220;2024-03-06T06:28:27;7.97;;;5.20;;
12441;SDS011;6285;48.804;9.220;2024-03-06T06:30:55;8.50;;;5.95;;
12441;SDS011;6285;48.804;9.220;2024-03-06T06:33:22;8.07;;;5.95;;
12441;SDS011;6285;48.804;9.220;2024-03-06T06:35:49;8.52;;;5.35;;
12441;SDS011;6285;48.804;9.220;2024-03-06T06:38:17;8.10;;;5.97;;
12441;SDS011;6285;48.804;9.220;2024-03-06T06:40:46;8.15;;;5.43;;
12441;SDS011;6285;48.804;9.220;2024-03-06T06:43:14;8.93;;;5.55;;
12441;SDS011;6285;48.804;9.220;2024-03-06T06:45:41;9.35;;;6.10;;
12441;SDS011;6285;48.804;9.220;2024-03-06T06:48:08;8.95;;;6.85;;
12441;SDS011;6285;48.804;9.220;2024-03-06T06:50:35;8.73;;;6.57;;
12441;SDS011;6285;48.804;9.220;2024-03-06T06:53:04;10.73;;;6.50;;
12441;SDS011;6285;48.804;9.220;2024-03-06T06:55:32;10.02;;;6.60;;
12441;SDS011;6285;48.804;9.220;2024-03-06T06:58:00;7.63;;;6.70;;
12441;SDS011;6285;48.804;9.220;2024-03-06T07:00:27;10.48;;;6.30;;
12441;SDS011;6285;48.804;9.220;2024-03-06T07:02:56;9.65;;;6.50;;
12441;SDS011;6285;48.804;9.220;2024-03-06T07:05:24;10.45;;;6.97;;
12441;SDS011;6285;48.804;9.220;2024-03-06T07:07:51;9.55;;;6.40;;
12441;SDS011;6285;48.804;9.220;2024-03-06T07:10:19;8.10;;;6.25;;
12441;SDS011;6285;48.804;9.220;2024-03-06T07:12:46;8.15;;;5.70;;
12441;SDS011;6285;48.804;9.220;2024-03-06T07:15:15;10.65;;;6.00;;
12441;SDS011;6285;48.804;9.220;2024-03-06T07:17:42;7.40;;;5.55;;
12441;SDS011;6285;48.804;9.220;2024-03-06T07:20:09;6.82;;;5.80;;
12441;SDS011;6285;48.804;9.220;2024-03-06T07:22:36;9.13;;;6.55;;
12441;SDS011;6285;48.804;9.220;2024-03-06T07:25:04;7.55;;;5.97;;
12441;SDS011;6285;48.804;9.220;2024-03-06T07:27:31;7.90;;;5.50;;
12441;SDS011;6285;48.804;9.220;2024-03-06T07:29:58;7.93;;;5.53;;
12441;SDS011;6285;48.804;9.220;2024-03-06T07:32:27;10.18;;;6.78;;
12441;SDS011;6285;48.804;9.220;2024-03-06T07:34:54;9.60;;;5.88;;
12441;SDS011;6285;48.804;9.220;2024-03-06T07:37:23;7.10;;;5.80;;
12441;SDS011;6285;48.804;9.220;2024-03-06T07:39:50;9.23;;;5.78;;
12441;SDS011;6285;48.804;9.220;2024-03-06T07:42:17;6.93;;;4.82;;
12441;SDS011;6285;48.804;9.220;2024-03-06T07:44:44;9.18;;;5.80;;
12441;SDS011;6285;48.804;9.220;2024-03-06T07:47:12;7.78;;;5.50;;
12441;SDS011;6285;48.804;9.220;2024-03-06T07:49:41;10.10;;;5.72;;
12441;SDS011;6285;48.804;9.220;2024-03-06T07:52:09;7.72;;;6.45;;
12441;SDS011;6285;48.804;9.220;2024-03-06T07:54:36;7.03;;;5.53;;
12441;SDS011;6285;48.804;9.220;2024-03-06T07:57:04;10.48;;;5.35;;
12441;SDS011;6285;48.804;9.220;2024-03-06T07:59:31;7.85;;;5.50;;
12441;SDS011;6285;48.804;9.220;2024-03-06T08:01:59;7.30;;;5.00;;
12441;SDS011;6285;48.804;9.220;2024-03-06T08:04:26;7.32;;;5.85;;
12441;SDS011;6285;48.804;9.220;2024-03-06T08:06:55;7.38;;;5.38;;
12441;SDS011;6285;48.804;9.220;2024-03-06T08:09:22;6.90;;;5.50;;
12441;SDS011;6285;48.804;9.220;2024-03-06T08:11:53;8.07;;;6.00;;
12441;SDS011;6285;48.804;9.220;2024-03-06T08:14:20;6.53;;;5.00;;
12441;SDS011;6285;48.804;9.220;2024-03-06T08:16:48;6.60;;;5.55;;
12441;SDS011;6285;48.804;9.220;2024-03-06T08:19:15;8.02;;;4.85;;
12441;SDS011;6285;48.804;9.220;2024-03-06T08:21:43;8.07;;;5.38;;
12441;SDS011;6285;48.804;9.220;2024-03-06T08:24:11;8.88;;;5.35;;
12441;SDS011;6285;48.804;9.220;2024-03-06T08:26:38;7.90;;;4.80;;
12441;SDS011;6285;48.804;9.220;2024-03-06T08:29:04;6.30;;;4.82;;
12441;SDS011;6285;48.804;9.220;2024-03-06T08:31:31;6.78;;;4.75;;
12441;SDS011;6285;48.804;9.220;2024-03-06T08:33:59;6.45;;;4.78;;
12441;SDS011;6285;48.804;9.220;2024-03-06T08:36:26;9.23;;;5.10;;
12441;SDS011;6285;48.804;9.220;2024-03-06T08:38:54;9.25;;;5.25;;
12441;SDS011;6285;48.804;9.220;2024-03-06T08:41:22;7.07;;;4.90;;
12441;SDS011;6285;48.804;9.220;2024-03-06T08:43:49;6.72;;;4.80;;
12441;SDS011;6285;48.804;9.220;2024-03-06T08:46:16;7.63;;;5.07;;
12441;SDS011;6285;48.804;9.220;2024-03-06T08:48:43;6.22;;;4.45;;
12441;SDS011;6285;48.804;9.220;2024-03-06T08:51:11;7.75;;;5.35;;
12441;SDS011;6285;48.804;9.220;2024-03-06T08:53:39;7.53;;;4.60;;
12441;SDS011;6285;48.804;9.220;2024-03-06T08:56:06;8.55;;;5.32;;
12441;SDS011;6285;48.804;9.220;2024-03-06T08:58:35;8.00;;;4.80;;
12441;SDS011;6285;48.804;9.220;2024-03-06T09:01:01;5.28;;;4.78;;
12441;SDS011;6285;48.804;9.220;2024-03-06T09:03:29;10.48;;;5.35;;
12441;SDS011;6285;48.804;9.220;2024-03-06T09:05:56;6.40;;;4.90;;
12441;SDS011;6285;48.804;9.220;2024-03-06T09:08:24;6.43;;;5.13;;
12441;SDS011;6285;48.804;9.220;2024-03-06T09:10:52;7.80;;;5.35;;
12441;SDS011;6285;48.804;9.220;2024-03-06T09:13:19;7.90;;;6.13;;
12441;SDS011;6285;48.804;9.220;2024-03-06T09:15:47;6.50;;;5.70;;
12441;SDS011;6285;48.804;9.220;2024-03-06T09:18:14;8.75;;;5.90;;
12441;SDS011;6285;48.804;9.220;2024-03-06T09:20:41;7.25;;;6.28;;
12441;SDS011;6285;48.804;9.220;2024-03-06T09:23:09;10.07;;;6.40;;
12441;SDS011;6285;48.804;9.220;2024-03-06T09:25:36;7.47;;;6.07;;
12441;SDS011;6285;48.804;9.220;2024-03-06T09:28:03;7.72;;;6.10;;
12441;SDS011;6285;48.804;9.220;2024-03-06T09:30:30;6.80;;;5.88;;
12441;SDS011;6285;48.804;9.220;2024-03-06T09:32:58;7.90;;;5.60;;
12441;SDS011;6285;48.804;9.220;2024-03-06T09:35:25;7.63;;;5.95;;
12441;SDS011;6285;48.804;9.220;2024-03-06T09:37:52;7.95;;;5.70;;
12441;SDS011;6285;48.804;9.220;2024-03-06T09:40:22;8.00;;;6.07;;
12441;SDS011;6285;48.804;9.220;2024-03-06T09:42:50;7.65;;;6.07;;
12441;SDS011;6285;48.804;9.220;2024-03-06T09:45:17;9.27;;;6.25;;
12441;SDS011;6285;48.804;9.220;2024-03-06T09:47:44;9.82;;;6.75;;
12441;SDS011;6285;48.804;9.220;2024-03-06T09:50:14;9.65;;;5.75;;
12441;SDS011;6285;48.804;9.220;2024-03-06T09:52:45;7.65;;;6.13;;
12441;SDS011;6285;48.804;9.220;2024-03-06T09:55:14;7.38;;;6.00;;
12441;SDS011;6285;48.804;9.220;2024-03-06T09:57:41;7.40;;;6.70;;
12441;SDS011;6285;48.804;9.220;2024-03-06T10:00:08;11.52;;;7.80;;
12441;SDS011;6285;48.804;9.220;2024-03-06T10:02:38;8.75;;;7.93;;
12441;SDS011;6285;48.804;9.220;2024-03-06T10:05:05;12.43;;;8.70;;
12441;SDS011;6285;48.804;9.220;2024-03-06T10:07:34;9.98;;;8.48;;
12441;SDS011;6285;48.804;9.220;2024-03-06T10:10:01;13.27;;;9.25;;
12441;SDS011;6285;48.804;9.220;2024-03-06T10:12:28;11.73;;;9.85;;
12441;SDS011;6285;48.804;9.220;2024-03-06T10:14:55;11.82;;;9.20;;
12441;SDS011;6285;48.804;9.220;2024-03-06T10:17:22;11.25;;;9.05;;
12441;SDS011;6285;48.804;9.220;2024-03-06T10:19:51;11.23;;;9.27;;
12441;SDS011;6285;48.804;9.220;2024-03-06T10:22:19;10.52;;;9.38;;
12441;SDS011;6285;48.804;9.220;2024-03-06T10:24:50;10.85;;;9.75;;
12441;SDS011;6285;48.804;9.220;2024-03-06T10:27:17;12.05;;;10.32;;
12441;SDS011;6285;48.804;9.220;2024-03-06T10:29:44;12.07;;;10.65;;
12441;SDS011;6285;48.804;9.220;2024-03-06T10:32:15;11.57;;;10.23;;
12441;SDS011;6285;48.804;9.220;2024-03-06T10:34:44;11.45;;;10.25;;
12441;SDS011;6285;48.804;9.220;2024-03-06T10:37:11;12.98;;;10.93;;
12441;SDS011;6285;48.804;9.220;2024-03-06T10:39:39;11.73;;;10.50;;
12441;SDS011;6285;48.804;9.220;2024-03-06T10:42:10;12.45;;;10.98;;
12441;SDS011;6285;48.804;9.220;2024-03-06T10:44:41;13.05;;;11.57;;
12441;SDS011;6285;48.804;9.220;2024-03-06T10:47:10;15.35;;;12.05;;
12441;SDS011;6285;48.804;9.220;2024-03-06T10:49:38;15.90;;;12.18;;
12441;SDS011;6285;48.804;9.220;2024-03-06T10:52:07;15.35;;;13.75;;
12441;SDS011;6285;48.804;9.220;2024-03-06T10:54:36;14.98;;;13.48;;
12441;SDS011;6285;48.804;9.220;2024-03-06T10:57:07;15.30;;;13.80;;
12441;SDS011;6285;48.804;9.220;2024-03-06T10:59:36;15.82;;;13.90;;
12441;SDS011;6285;48.804;9.220;2024-03-06T11:02:03;15.52;;;13.93;;
12441;SDS011;6285;48.804;9.220;2024-03-06T11:04:33;15.52;;;13.43;;
12441;SDS011;6285;48.804;9.220;2024-03-06T11:07:01;17.42;;;14.77;;
12441;SDS011;6285;48.804;9.220;2024-03-06T11:09:31;18.42;;;16.30;;
12441;SDS011;6285;48.804;9.220;2024-03-06T11:12:00;20.10;;;16.83;;
12441;SDS011;6285;48.804;9.220;2024-03-06T11:14:27;19.80;;;17.63;;
12441;SDS011;6285;48.804;9.220;2024-03-06T11:17:00;21.60;;;18.42;;
12441;SDS011;6285;48.804;9.220;2024-03-06T11:19:27;19.55;;;17.55;;
12441;SDS011;6285;48.804;9.220;2024-03-06T11:21:55;22.00;;;18.58;;
12441;SDS011;6285;48.804;9.220;2024-03-06T11:24:22;22.27;;;18.73;;
12441;SDS011;6285;48.804;9.220;2024-03-06T11:26:50;20.13;;;17.77;;
12441;SDS011;6285;48.804;9.220;2024-03-06T11:29:17;20.90;;;18.08;;
12441;SDS011;6285;48.804;9.220;2024-03-06T11:32:05;21.20;;;18.45;;
12441;SDS011;6285;48.804;9.220;2024-03-06T11:34:33;24.80;;;19.27;;
12441;SDS011;6285;48.804;9.220;2024-03-06T11:37:03;23.02;;;19.85;;
12441;SDS011;6285;48.804;9.220;2024-03-06T11:39:33;22.55;;;19.75;;
12441;SDS011;6285;48.804;9.220;2024-03-06T11:42:01;24.25;;;20.30;;
12441;SDS011;6285;48.804;9.220;2024-03-06T11:44:29;24.27;;;21.15;;
12441;SDS011;6285;48.804;9.220;2024-03-06T11:46:57;23.05;;;19.73;;
12441;SDS011;6285;48.804;9.220;2024-03-06T11:49:26;24.23;;;21.10;;
12441;SDS011;6285;48.804;9.220;2024-03-06T11:51:56;24.80;;;21.00;;
12441;SDS011;6285;48.804;9.220;2024-03-06T11:54:24;26.30;;;20.65;;
12441;SDS011;6285;48.804;9.220;2024-03-06T11:56:52;25.13;;;21.45;;
12441;SDS011;6285;48.804;9.220;2024-03-06T11:59:20;27.40;;;22.45;;
12441;SDS011;6285;48.804;9.220;2024-03-06T12:01:51;25.70;;;22.05;;
12441;SDS011;6285;48.804;9.220;2024-03-06T12:04:18;26.75;;;22.02;;
12441;SDS011;6285;48.804;9.220;2024-03-06T12:06:50;24.55;;;21.90;;
12441;SDS011;6285;48.804;9.220;2024-03-06T12:09:17;26.85;;;22.02;;
12441;SDS011;6285;48.804;9.220;2024-03-06T12:11:44;26.30;;;21.98;;
12441;SDS011;6285;48.804;9.220;2024-03-06T12:14:15;28.25;;;22.33;;
12441;SDS011;6285;48.804;9.220;2024-03-06T12:16:43;25.45;;;21.48;;
12441;SDS011;6285;48.804;9.220;2024-03-06T12:19:10;26.20;;;22.40;;
12441;SDS011;6285;48.804;9.220;2024-03-06T12:21:38;26.38;;;21.98;;
12441;SDS011;6285;48.804;9.220;2024-03-06T12:24:08;27.88;;;21.60;;
12441;SDS011;6285;48.804;9.220;2024-03-06T12:26:36;25.02;;;22.23;;
12441;SDS011;6285;48.804;9.220;2024-03-06T12:29:03;24.35;;;21.30;;
12441;SDS011;6285;48.804;9.220;2024-03-06T12:31:31;24.45;;;20.95;;
12441;SDS011;6285;48.804;9.220;2024-03-06T12:33:58;25.95;;;21.88;;
12441;SDS011;6285;48.804;9.220;2024-03-06T12:36:27;25.58;;;20.50;;
12441;SDS011;6285;48.804;9.220;2024-03-06T12:38:56;25.75;;;21.27;;
12441;SDS011;6285;48.804;9.220;2024-03-06T12:41:24;24.67;;;21.00;;
12441;SDS011;6285;48.804;9.220;2024-03-06T12:43:52;23.17;;;19.92;;
12441;SDS011;6285;48.804;9.220;2024-03-06T12:46:20;21.92;;;19.33;;
12441;SDS011;6285;48.804;9.220;2024-03-06T12:48:47;23.70;;;19.65;;
12441;SDS011;6285;48.804;9.220;2024-03-06T12:51:14;22.42;;;19.95;;
12441;SDS011;6285;48.804;9.220;2024-03-06T12:53:41;26.75;;;20.88;;
12441;SDS011;6285;48.804;9.220;2024-03-06T12:56:13;24.00;;;20.42;;
12441;SDS011;6285;48.804;9.220;2024-03-06T12:58:41;24.52;;;20.10;;
12441;SDS011;6285;48.804;9.220;2024-03-06T13:01:08;24.77;;;21.25;;
12441;SDS011;6285;48.804;9.220;2024-03-06T13:03:36;24.13;;;20.02;;
12441;SDS011;6285;48.804;9.220;2024-03-06T13:06:03;25.33;;;21.65;;
12441;SDS011;6285;48.804;9.220;2024-03-06T13:08:31;29.60;;;22.58;;
12441;SDS011;6285;48.804;9.220;2024-03-06T13:11:02;26.27;;;21.85;;
12441;SDS011;6285;48.804;9.220;2024-03-06T13:13:29;25.08;;;21.85;;
12441;SDS011;6285;48.804;9.220;2024-03-06T13:16:00;25.92;;;22.25;;
12441;SDS011;6285;48.804;9.220;2024-03-06T13:18:26;25.92;;;22.00;;
12441;SDS011;6285;48.804;9.220;2024-03-06T13:20:56;24.58;;;21.88;;
12441;SDS011;6285;48.804;9.220;2024-03-06T13:23:25;23.52;;;21.05;;
12441;SDS011;6285;48.804;9.220;2024-03-06T13:25:52;22.17;;;19.75;;
12441;SDS011;6285;48.804;9.220;2024-03-06T13:28:19;21.90;;;19.63;;
12441;SDS011;6285;48.804;9.220;2024-03-06T13:30:47;23.90;;;21.35;;
12441;SDS011;6285;48.804;9.220;2024-03-06T13:33:16;25.38;;;20.88;;
12441;SDS011;6285;48.804;9.220;2024-03-06T13:35:43;23.75;;;20.65;;
12441;SDS011;6285;48.804;9.220;2024-03-06T13:38:10;23.65;;;20.27;;
12441;SDS011;6285;48.804;9.220;2024-03-06T13:40:37;22.27;;;19.65;;
12441;SDS011;6285;48.804;9.220;2024-03-06T13:43:05;21.98;;;19.65;;
12441;SDS011;6285;48.804;9.220;2024-03-06T13:45:33;23.02;;;19.77;;
12441;SDS011;6285;48.804;9.220;2024-03-06T13:48:00;22.85;;;19.42;;
12441;SDS011;6285;48.804;9.220;2024-03-06T13:50:31;22.95;;;20.50;;
12441;SDS011;6285;48.804;9.220;2024-03-06T13:52:58;23.10;;;20.52;;
12441;SDS011;6285;48.804;9.220;2024-03-06T13:55:25;22.83;;;19.48;;
12441;SDS011;6285;48.804;9.220;2024-03-06T13:57:56;24.27;;;19.95;;
12441;SDS011;6285;48.804;9.220;2024-03-06T14:00:23;22.23;;;19.42;;
12441;SDS011;6285;48.804;9.220;2024-03-06T14:02:50;25.50;;;20.83;;
12441;SDS011;6285;48.804;9.220;2024-03-06T14:05:17;24.67;;;20.60;;
12441;SDS011;6285;48.804;9.220;2024-03-06T14:07:51;24.90;;;19.77;;
12441;SDS011;6285;48.804;9.220;2024-03-06T14:10:18;21.88;;;19.50;;
12441;SDS011;6285;48.804;9.220;2024-03-06T14:12:46;21.20;;;18.98;;
12441;SDS011;6285;48.804;9.220;2024-03-06T14:15:16;22.63;;;20.23;;
12441;SDS011;6285;48.804;9.220;2024-03-06T14:17:44;21.83;;;19.48;;
12441;SDS011;6285;48.804;9.220;2024-03-06T14:20:11;24.58;;;20.02;;
12441;SDS011;6285;48.804;9.220;2024-03-06T14:22:38;22.08;;;19.27;;
12441;SDS011;6285;48.804;9.220;2024-03-06T14:25:07;24.40;;;20.48;;
12441;SDS011;6285;48.804;9.220;2024-03-06T14:27:35;22.70;;;20.13;;
12441;SDS011;6285;48.804;9.220;2024-03-06T14:30:03;22.40;;;20.10;;
12441;SDS011;6285;48.804;9.220;2024-03-06T14:32:32;21.73;;;19.40;;
12441;SDS011;6285;48.804;9.220;2024-03-06T14:34:59;22.75;;;19.52;;
12441;SDS011;6285;48.804;9.220;2024-03-06T14:37:26;22.77;;;19.63;;
12441;SDS011;6285;48.804;9.220;2024-03-06T14:39:54;21.17;;;18.80;;
12441;SDS011;6285;48.804;9.220;2024-03-06T14:42:23;22.75;;;20.15;;
12441;SDS011;6285;48.804;9.220;2024-03-06T14:44:50;22.15;;;19.80;;
12441;SDS011;6285;48.804;9.220;2024-03-06T14:47:17;23.90;;;20.17;;
12441;SDS011;6285;48.804;9.220;2024-03-06T14:49:44;23.52;;;20.38;;
12441;SDS011;6285;48.804;9.220;2024-03-06T14:52:11;26.05;;;20.40;;